createdAt,value
2019-05-20T00:05:36.480Z,10.28
2019-05-20T00:15:36.989Z,10.38
2019-05-20T00:25:37.282Z,10.48
2019-05-20T00:35:37.917Z,10.62
2019-05-20T00:45:38.447Z,10.71
2019-05-20T00:55:39.484Z,10.71
2019-05-20T01:05:39.779Z,10.65
2019-05-20T01:15:40.063Z,10.59
2019-05-20T01:25:40.364Z,10.56
2019-05-20T01:35:40.802Z,10.57
2019-05-20T01:45:41.990Z,10.60
2019-05-20T01:55:44.251Z,10.63
2019-05-20T02:05:45.225Z,10.63
2019-05-20T02:15:58.051Z,10.64
2019-05-20T02:25:58.695Z,10.63
2019-05-20T02:35:59.142Z,10.63
2019-05-20T02:45:59.463Z,10.66
2019-05-20T02:55:59.840Z,10.68
2019-05-20T03:06:00.073Z,10.74
2019-05-20T03:16:00.408Z,10.80
2019-05-20T03:26:00.789Z,10.79
2019-05-20T03:36:01.418Z,10.82
2019-05-20T03:46:01.701Z,10.86
2019-05-20T03:56:02.403Z,10.94
2019-05-20T04:06:03.862Z,10.97
2019-05-20T04:16:04.668Z,11.04
2019-05-20T04:26:04.986Z,11.14
2019-05-20T04:36:05.564Z,11.25
2019-05-20T04:46:06.536Z,11.39
2019-05-20T04:56:08.374Z,11.47
2019-05-20T05:06:09.436Z,11.55
2019-05-20T05:16:13.717Z,11.61
2019-05-20T05:26:14.061Z,11.67
2019-05-20T05:36:15.311Z,11.70
2019-05-20T05:46:15.644Z,11.75
2019-05-20T05:56:16.289Z,11.84
2019-05-20T06:06:16.743Z,11.97
2019-05-20T06:16:35.003Z,12.06
2019-05-20T06:26:19.494Z,12.20
2019-05-20T06:36:26.846Z,12.30
2019-05-20T06:46:23.101Z,12.39
2019-05-20T06:56:23.457Z,12.48
2019-05-20T07:06:23.985Z,12.55
2019-05-20T07:16:24.720Z,12.62
2019-05-20T07:26:25.541Z,12.74
2019-05-20T07:36:25.936Z,12.96
2019-05-20T07:46:26.229Z,13.09
2019-05-20T07:56:30.287Z,13.19
2019-05-20T08:06:30.627Z,13.31
2019-05-20T08:16:31.675Z,13.53
2019-05-20T08:26:32.245Z,13.75
2019-05-20T08:36:35.269Z,13.94
2019-05-20T08:46:35.678Z,14.26
2019-05-20T08:56:36.434Z,14.53
2019-05-20T09:06:37.832Z,14.74
2019-05-20T09:16:38.453Z,15.06
2019-05-20T09:26:38.861Z,15.68
2019-05-20T09:36:39.254Z,16.34
2019-05-20T09:46:39.617Z,16.76
2019-05-20T09:56:40.354Z,17.15
2019-05-20T10:06:40.930Z,17.55
2019-05-20T10:16:41.707Z,18.24
2019-05-20T10:26:42.697Z,18.79
2019-05-20T10:36:43.188Z,18.71
2019-05-20T10:46:43.857Z,18.50
2019-05-20T10:56:44.148Z,18.63
2019-05-20T11:06:44.627Z,18.82
2019-05-20T11:16:45.516Z,19.31
2019-05-20T11:26:45.990Z,19.72
2019-05-20T11:36:46.787Z,19.87
2019-05-20T11:46:47.082Z,19.64
2019-05-20T11:56:48.241Z,19.59
2019-05-20T12:06:48.678Z,20.20
2019-05-20T12:16:49.052Z,20.03
2019-05-20T12:26:49.410Z,19.53
2019-05-20T12:36:49.769Z,19.44
2019-05-20T12:46:50.503Z,19.54
2019-05-20T12:56:51.094Z,20.20
2019-05-20T13:06:51.388Z,21.42
2019-05-20T13:16:52.432Z,21.70
2019-05-20T13:26:52.808Z,21.45
2019-05-20T13:36:53.456Z,20.33
2019-05-20T13:46:54.145Z,19.53
2019-05-20T13:56:54.532Z,18.75
2019-05-20T14:06:54.878Z,18.04
2019-05-20T14:16:55.708Z,17.34
2019-05-20T14:26:56.335Z,17.03
2019-05-20T14:36:56.674Z,17.07
2019-05-20T14:46:57.072Z,17.07
2019-05-20T14:56:58.266Z,19.01
2019-05-20T15:06:58.865Z,18.67
2019-05-20T15:16:59.679Z,17.88
2019-05-20T15:27:00.088Z,17.20
2019-05-20T15:37:00.534Z,16.68
2019-05-20T15:47:01.227Z,16.20
2019-05-20T15:57:01.733Z,16.15
2019-05-20T16:07:02.782Z,16.01
2019-05-20T16:17:04.245Z,16.00
2019-05-20T16:27:05.261Z,15.95
2019-05-20T16:37:05.700Z,15.92
2019-05-20T16:47:06.168Z,15.95
2019-05-20T16:57:06.565Z,16.04
2019-05-20T17:07:07.313Z,16.04
2019-05-20T17:17:08.495Z,15.93
2019-05-20T17:27:08.812Z,15.77
2019-05-20T17:37:10.177Z,15.67
2019-05-20T17:47:10.918Z,15.55
2019-05-20T17:57:11.967Z,15.40
2019-05-20T18:07:12.813Z,15.25
2019-05-20T18:17:13.261Z,14.98
2019-05-20T18:27:13.666Z,14.80
2019-05-20T18:37:14.128Z,14.60
2019-05-20T18:47:15.020Z,14.35
2019-05-20T18:57:15.407Z,14.05
2019-05-20T19:07:15.871Z,13.66
2019-05-20T19:17:17.035Z,13.49
2019-05-20T19:27:19.377Z,13.25
2019-05-20T19:37:20.759Z,13.07
2019-05-20T19:47:21.835Z,12.98
2019-05-20T19:57:24.078Z,12.87
2019-05-20T20:07:28.767Z,12.71
